Queen Of Cowichan — CZ4990 — position and weather

sailwx.info

Track history (hours):
 
Tides and Currents Weather Stations Pressure Air Temp Water Temp Dewpoint Dewpoint Depression Visibility Wind Speed Wind Dir Waves Ship Positions

Queen Of Cowichan

Last reported at 2016-Jul-28 03:33 UTC. Time now 2016-Jul-28 08:32 UTC.
Position N 49°13' W 123°54'.

Length 139 m; draft 5.5 m.

Type: Passenger vessel. MMSI: 316001251.

Date/timePositionNaut miles runAvg speedWind from/ knotsBaromVisibWave heightAir tempDewpointWater temp
2016-Jul-28 03:33N 49°13' W 123°54'1919.2
2016-Jul-28 02:33N 49°19' W 123°26'7 7.2
2016-Jul-28 01:33N 49°23' W 123°16'1414.3
2016-Jul-28 00:33N 49°16' W 123°36'1514.5
2016-Jul-27 23:33N 49°12' W 123°57'1211.9
2016-Jul-27 22:33N 49°16' W 123°41'1717.1
2016-Jul-27 21:33N 49°23' W 123°16'3 3.5
2016-Jul-27 20:33N 49°20' W 123°20'2020.0
2016-Jul-27 19:33N 49°14' W 123°50'6 5.7
2016-Jul-27 18:33N 49°12' W 123°57'0 0.0
2016-Jul-27 17:12N 49°12' W 123°57'0 0.0
2016-Jul-27 16:30N 49°12' W 123°57'0 0.0
2016-Jul-27 15:30N 49°12' W 123°57'0 0.0
2016-Jul-27 14:30N 49°12' W 123°57'0 0.0
2016-Jul-27 13:33N 49°12' W 123°57'0 0.0
2016-Jul-27 12:33N 49°12' W 123°57'0 0.0
2016-Jul-27 11:24N 49°12' W 123°57'0 0.0
2016-Jul-27 10:30N 49°12' W 123°57'0 0.0
2016-Jul-27 09:24N 49°12' W 123°57'0 0.0
2016-Jul-27 08:30N 49°12' W 123°57'0 0.0
2016-Jul-27 07:24N 49°12' W 123°57'0 0.0
2016-Jul-27 06:30N 49°12' W 123°57'0 0.0
2016-Jul-27 05:30N 49°12' W 123°57'0 0.0
2016-Jul-27 04:30N 49°12' W 123°57'0 0.4
2016-Jul-27 03:34N 49°12' W 123°57'1919.0
2016-Jul-27 02:33N 49°18' W 123°29'10 9.7
2016-Jul-27 01:33N 49°23' W 123°16'1414.2
2016-Jul-27 00:33N 49°17' W 123°36'1514.8
2016-Jul-26 23:33N 49°12' W 123°57'1211.6
2016-Jul-26 22:34N 49°16' W 123°41'1717.3
2016-Jul-26 21:33N 49°23' W 123°16'4 3.7
2016-Jul-26 20:34N 49°20' W 123°20'2019.7
2016-Jul-26 19:33N 49°14' W 123°49'6 6.0
2016-Jul-26 18:34N 49°12' W 123°57'0 0.0
2016-Jul-26 17:33N 49°12' W 123°57'0 0.0
2016-Jul-26 16:33N 49°12' W 123°57'0 0.0
2016-Jul-26 15:33N 49°12' W 123°57'0 0.0
2016-Jul-26 14:30N 49°12' W 123°57'0 0.0
2016-Jul-26 13:33N 49°12' W 123°57'0 0.0
2016-Jul-26 12:33N 49°12' W 123°57'0 0.0
2016-Jul-26 11:33N 49°12' W 123°57'0 0.0
2016-Jul-26 10:27N 49°12' W 123°57'0 0.0
2016-Jul-26 09:33N 49°12' W 123°57'0 0.0
2016-Jul-26 08:27N 49°12' W 123°57'0 0.0
2016-Jul-26 07:30N 49°12' W 123°57'0 0.0
2016-Jul-26 06:33N 49°12' W 123°57'0 0.0
2016-Jul-26 05:33N 49°12' W 123°57'0 0.0
2016-Jul-26 04:33N 49°12' W 123°57'3 3.2
2016-Jul-26 03:34N 49°14' W 123°54'2019.6
2016-Jul-26 02:33N 49°19' W 123°25'6 6.4
2016-Jul-26 01:33N 49°23' W 123°16'1514.7
2016-Jul-26 00:34N 49°17' W 123°37'1414.3
2016-Jul-25 23:33N 49°12' W 123°57'1110.7
2016-Jul-25 22:34N 49°16' W 123°42'1818.2
2016-Jul-25 21:33N 49°23' W 123°16'5 5.4
2016-Jul-25 20:33N 49°19' W 123°22'2120.8
2016-Jul-25 19:34N 49°14' W 123°53'2 2.5
2016-Jul-25 18:34N 49°12' W 123°56'1919.4
2016-Jul-25 17:34N 49°18' W 123°28'9 8.7
2016-Jul-25 16:34N 49°23' W 123°16'1413.6
2016-Jul-25 15:34N 49°16' W 123°35'1515.4
2016-Jul-25 14:33N 49°12' W 123°57'0 0.0
2016-Jul-25 13:33N 49°12' W 123°57'0 0.0
2016-Jul-25 12:30N 49°12' W 123°57'0 0.0
2016-Jul-25 11:30N 49°12' W 123°57'0 0.0
2016-Jul-25 10:27N 49°12' W 123°57'0 0.0
2016-Jul-25 09:30N 49°12' W 123°57'0 0.0
2016-Jul-25 08:28N 49°12' W 123°57'1011.3
2016-Jul-25 07:34N 49°16' W 123°43'1918.9
2016-Jul-25 06:33N 49°23' W 123°16'8 8.5
2016-Jul-25 05:34N 49°18' W 123°26'2120.6
2016-Jul-25 04:33N 49°12' W 123°57'3 2.8
2016-Jul-25 03:33N 49°14' W 123°53'2019.6
2016-Jul-25 02:33N 49°19' W 123°24'6 6.2
2016-Jul-25 01:33N 49°23' W 123°16'1313.5
2016-Jul-25 00:33N 49°17' W 123°35'1614.3
2016-Jul-24 23:28N 49°12' W 123°57'1111.9
2016-Jul-24 22:33N 49°16' W 123°42'1818.1
2016-Jul-24 21:33N 49°23' W 123°16'6 6.0
2016-Jul-24 20:33N 49°18' W 123°22'2120.7
2016-Jul-24 19:33N 49°13' W 123°53'3 3.2
2016-Jul-24 18:33N 49°12' W 123°57'0 0.0
2016-Jul-24 15:29N 49°12' W 123°57'0 0.0
2016-Jul-24 13:32N 49°12' W 123°57'0 0.0
2016-Jul-24 12:26N 49°12' W 123°57'0 0.0
2016-Jul-24 11:14N 49°12' W 123°57'0 0.0
2016-Jul-24 09:32N 49°12' W 123°57'0 0.0
2016-Jul-24 04:17N 49°12' W 123°57'0 0.0
2016-Jul-23 23:12N 49°12' W 123°57'1016.1
2016-Jul-23 22:34N 49°16' W 123°43'1918.7
2016-Jul-23 21:34N 49°23' W 123°16'4 3.6
2016-Jul-23 20:34N 49°20' W 123°20'2020.4
2016-Jul-23 19:33N 49°14' W 123°50'5 5.1
2016-Jul-23 18:34N 49°12' W 123°57'1919.1
2016-Jul-23 17:34N 49°18' W 123°29'9 9.5
2016-Jul-23 16:34N 49°23' W 123°16'1514.5
2016-Jul-23 15:33N 49°16' W 123°36'1414.0
2016-Jul-23 14:31N 49°12' W 123°57'0 0.0
2016-Jul-23 04:15N 49°12' W 123°57'3 4.3
2016-Jul-23 03:34N 49°13' W 123°54'2019.5
2016-Jul-23 02:34N 49°19' W 123°25'7 6.7
2016-Jul-23 01:34N 49°23' W 123°16'1716.9
2016-Jul-23 00:33N 49°16' W 123°40'1210.6
2016-Jul-22 23:26N 49°12' W 123°57'1315.3
2016-Jul-22 22:34N 49°17' W 123°39'1613.2
2016-Jul-22 21:22N 49°23' W 123°16'6 6.8
2016-Jul-22 20:34N 49°19' W 123°23'2120.6
2016-Jul-22 19:33N 49°14' W 123°53'2 2.4
2016-Jul-22 18:33N 49°12' W 123°56'2019.5
2016-Jul-22 17:33N 49°18' W 123°28'9 8.5
2016-Jul-22 16:33N 49°23' W 123°16'1514.8
2016-Jul-22 15:34N 49°16' W 123°37'1414.2
2016-Jul-22 14:33N 49°12' W 123°57'3 0.2
2016-Jul-22 03:33N 49°13' W 123°54'1919.4
2016-Jul-22 02:33N 49°19' W 123°26'7 6.9
2016-Jul-22 01:31N 49°23' W 123°16'1717.3
2016-Jul-22 00:34N 49°16' W 123°40'12 9.3
2016-Jul-21 23:14N 49°12' W 123°57'1217.2
2016-Jul-21 22:33N 49°16' W 123°41'1717.2
2016-Jul-21 21:33N 49°23' W 123°16'4 4.4
2016-Jul-21 20:34N 49°19' W 123°21'2120.7
2016-Jul-21 19:33N 49°14' W 123°51'3 2.6
2016-Jul-21 18:32N 49°13' W 123°55'1919.3
2016-Jul-21 17:33N 49°18' W 123°27'8 7.8
2016-Jul-21 16:30N 49°23' W 123°16'1515.1
2016-Jul-21 15:30N 49°16' W 123°37'1413.9
2016-Jul-21 14:30N 49°12' W 123°57'0 0.0
2016-Jul-21 12:26N 49°12' W 123°57'0 0.0
2016-Jul-21 04:05N 49°12' W 123°57'0 0.8
2016-Jul-21 03:33N 49°12' W 123°57'1919.1
2016-Jul-21 02:34N 49°19' W 123°30'10 9.9
2016-Jul-21 01:34N 49°23' W 123°16'1514.7
2016-Jul-21 00:33N 49°16' W 123°37'1414.2
2016-Jul-20 23:33N 49°12' W 123°57'1212.2
2016-Jul-20 22:33N 49°17' W 123°40'1715.9
2016-Jul-20 21:30N 49°23' W 123°16'4 3.9
2016-Jul-20 20:33N 49°20' W 123°21'2020.1
2016-Jul-20 19:33N 49°14' W 123°50'5 5.1
2016-Jul-20 18:31N 49°12' W 123°57'0 0.0
2016-Jul-20 17:10N 49°12' W 123°57'0 0.0
2016-Jul-20 15:31N 49°12' W 123°57'0 0.0
2016-Jul-20 13:28N 49°12' W 123°57'0 0.0
2016-Jul-20 03:33N 49°12' W 123°57'1818.7
2016-Jul-20 02:33N 49°18' W 123°31'1110.5
2016-Jul-20 01:34N 49°23' W 123°16'1212.3
2016-Jul-20 00:34N 49°17' W 123°33'1714.9
2016-Jul-19 23:27N 49°12' W 123°57'1011.2
2016-Jul-19 22:33N 49°16' W 123°44'1919.1
2016-Jul-19 21:33N 49°23' W 123°16'4 3.7
2016-Jul-19 20:33N 49°20' W 123°20'2020.0
2016-Jul-19 19:33N 49°14' W 123°49'6 5.1
2016-Jul-19 18:25N 49°12' W 123°57'0 0.0
2016-Jul-19 17:19N 49°12' W 123°57'0 0.0
2016-Jul-19 15:28N 49°12' W 123°57'0 0.0
2016-Jul-19 14:31N 49°12' W 123°57'0 0.0
2016-Jul-19 08:19N 49°12' W 123°57'0 0.0
2016-Jul-19 04:25N 49°12' W 123°57'6 6.6
2016-Jul-19 03:33N 49°15' W 123°50'2019.8
2016-Jul-19 02:33N 49°20' W 123°21'4 3.9
2016-Jul-19 01:34N 49°23' W 123°17'2019.6
2016-Jul-19 00:33N 49°15' W 123°45'9 7.9
2016-Jul-18 23:27N 49°12' W 123°57'1617.9
2016-Jul-18 22:33N 49°17' W 123°35'13 9.8
2016-Jul-18 21:14N 49°23' W 123°16'5 7.2
2016-Jul-18 20:34N 49°19' W 123°22'2120.6
2016-Jul-18 19:33N 49°14' W 123°52'3 2.8
2016-Jul-18 18:33N 49°12' W 123°56'2019.6
2016-Jul-18 17:33N 49°18' W 123°27'8 7.6
2016-Jul-18 16:27N 49°23' W 123°16'1517.2
2016-Jul-18 15:33N 49°16' W 123°38'14 1.9
2016-Jul-18 08:14N 49°12' W 123°57'710.1
2016-Jul-18 07:33N 49°15' W 123°48'2019.9
2016-Jul-18 06:33N 49°21' W 123°19'4 4.1
2016-Jul-18 05:33N 49°18' W 123°23'2120.6
2016-Jul-18 04:33N 49°13' W 123°54'1 0.6
2016-Jul-18 03:33N 49°14' W 123°53'  
Track history (hours):
 
Tides and Currents Weather Stations Pressure Air Temp Water Temp Dewpoint Dewpoint Depression Visibility Wind Speed Wind Dir Waves Ship Positions

Queen Of Cowichan

Last reported at 2016-Jul-28 03:33 UTC. Time now 2016-Jul-28 08:32 UTC.
Position N 49°13' W 123°54'.

Length 139 m; draft 5.5 m.

Type: Passenger vessel. MMSI: 316001251.

Date/timePositionNaut miles runAvg speedWind from/ knotsBaromVisibWave heightAir tempDewpointWater temp
2016-Jul-28 03:33N 49°13' W 123°54'1919.2
2016-Jul-28 02:33N 49°19' W 123°26'7 7.2
2016-Jul-28 01:33N 49°23' W 123°16'1414.3
2016-Jul-28 00:33N 49°16' W 123°36'1514.5
2016-Jul-27 23:33N 49°12' W 123°57'1211.9
2016-Jul-27 22:33N 49°16' W 123°41'1717.1
2016-Jul-27 21:33N 49°23' W 123°16'3 3.5
2016-Jul-27 20:33N 49°20' W 123°20'2020.0
2016-Jul-27 19:33N 49°14' W 123°50'6 5.7
2016-Jul-27 18:33N 49°12' W 123°57'0 0.0
2016-Jul-27 17:12N 49°12' W 123°57'0 0.0
2016-Jul-27 16:30N 49°12' W 123°57'0 0.0
2016-Jul-27 15:30N 49°12' W 123°57'0 0.0
2016-Jul-27 14:30N 49°12' W 123°57'0 0.0
2016-Jul-27 13:33N 49°12' W 123°57'0 0.0
2016-Jul-27 12:33N 49°12' W 123°57'0 0.0
2016-Jul-27 11:24N 49°12' W 123°57'0 0.0
2016-Jul-27 10:30N 49°12' W 123°57'0 0.0
2016-Jul-27 09:24N 49°12' W 123°57'0 0.0
2016-Jul-27 08:30N 49°12' W 123°57'0 0.0
2016-Jul-27 07:24N 49°12' W 123°57'0 0.0
2016-Jul-27 06:30N 49°12' W 123°57'0 0.0
2016-Jul-27 05:30N 49°12' W 123°57'0 0.0
2016-Jul-27 04:30N 49°12' W 123°57'0 0.4
2016-Jul-27 03:34N 49°12' W 123°57'1919.0
2016-Jul-27 02:33N 49°18' W 123°29'10 9.7
2016-Jul-27 01:33N 49°23' W 123°16'1414.2
2016-Jul-27 00:33N 49°17' W 123°36'1514.8
2016-Jul-26 23:33N 49°12' W 123°57'1211.6
2016-Jul-26 22:34N 49°16' W 123°41'1717.3
2016-Jul-26 21:33N 49°23' W 123°16'4 3.7
2016-Jul-26 20:34N 49°20' W 123°20'2019.7
2016-Jul-26 19:33N 49°14' W 123°49'6 6.0
2016-Jul-26 18:34N 49°12' W 123°57'0 0.0
2016-Jul-26 17:33N 49°12' W 123°57'0 0.0
2016-Jul-26 16:33N 49°12' W 123°57'0 0.0
2016-Jul-26 15:33N 49°12' W 123°57'0 0.0
2016-Jul-26 14:30N 49°12' W 123°57'0 0.0
2016-Jul-26 13:33N 49°12' W 123°57'0 0.0
2016-Jul-26 12:33N 49°12' W 123°57'0 0.0
2016-Jul-26 11:33N 49°12' W 123°57'0 0.0
2016-Jul-26 10:27N 49°12' W 123°57'0 0.0
2016-Jul-26 09:33N 49°12' W 123°57'0 0.0
2016-Jul-26 08:27N 49°12' W 123°57'0 0.0
2016-Jul-26 07:30N 49°12' W 123°57'0 0.0
2016-Jul-26 06:33N 49°12' W 123°57'0 0.0
2016-Jul-26 05:33N 49°12' W 123°57'0 0.0
2016-Jul-26 04:33N 49°12' W 123°57'3 3.2
2016-Jul-26 03:34N 49°14' W 123°54'2019.6
2016-Jul-26 02:33N 49°19' W 123°25'6 6.4
2016-Jul-26 01:33N 49°23' W 123°16'1514.7
2016-Jul-26 00:34N 49°17' W 123°37'1414.3
2016-Jul-25 23:33N 49°12' W 123°57'1110.7
2016-Jul-25 22:34N 49°16' W 123°42'1818.2
2016-Jul-25 21:33N 49°23' W 123°16'5 5.4
2016-Jul-25 20:33N 49°19' W 123°22'2120.8
2016-Jul-25 19:34N 49°14' W 123°53'2 2.5
2016-Jul-25 18:34N 49°12' W 123°56'1919.4
2016-Jul-25 17:34N 49°18' W 123°28'9 8.7
2016-Jul-25 16:34N 49°23' W 123°16'1413.6
2016-Jul-25 15:34N 49°16' W 123°35'1515.4
2016-Jul-25 14:33N 49°12' W 123°57'0 0.0
2016-Jul-25 13:33N 49°12' W 123°57'0 0.0
2016-Jul-25 12:30N 49°12' W 123°57'0 0.0
2016-Jul-25 11:30N 49°12' W 123°57'0 0.0
2016-Jul-25 10:27N 49°12' W 123°57'0 0.0
2016-Jul-25 09:30N 49°12' W 123°57'0 0.0
2016-Jul-25 08:28N 49°12' W 123°57'1011.3
2016-Jul-25 07:34N 49°16' W 123°43'1918.9
2016-Jul-25 06:33N 49°23' W 123°16'8 8.5
2016-Jul-25 05:34N 49°18' W 123°26'2120.6
2016-Jul-25 04:33N 49°12' W 123°57'3 2.8
2016-Jul-25 03:33N 49°14' W 123°53'2019.6
2016-Jul-25 02:33N 49°19' W 123°24'6 6.2
2016-Jul-25 01:33N 49°23' W 123°16'1313.5
2016-Jul-25 00:33N 49°17' W 123°35'1614.3
2016-Jul-24 23:28N 49°12' W 123°57'1111.9
2016-Jul-24 22:33N 49°16' W 123°42'1818.1
2016-Jul-24 21:33N 49°23' W 123°16'6 6.0
2016-Jul-24 20:33N 49°18' W 123°22'2120.7
2016-Jul-24 19:33N 49°13' W 123°53'3 3.2
2016-Jul-24 18:33N 49°12' W 123°57'0 0.0
2016-Jul-24 15:29N 49°12' W 123°57'0 0.0
2016-Jul-24 13:32N 49°12' W 123°57'0 0.0
2016-Jul-24 12:26N 49°12' W 123°57'0 0.0
2016-Jul-24 11:14N 49°12' W 123°57'0 0.0
2016-Jul-24 09:32N 49°12' W 123°57'0 0.0
2016-Jul-24 04:17N 49°12' W 123°57'0 0.0
2016-Jul-23 23:12N 49°12' W 123°57'1016.1
2016-Jul-23 22:34N 49°16' W 123°43'1918.7
2016-Jul-23 21:34N 49°23' W 123°16'4 3.6
2016-Jul-23 20:34N 49°20' W 123°20'2020.4
2016-Jul-23 19:33N 49°14' W 123°50'5 5.1
2016-Jul-23 18:34N 49°12' W 123°57'1919.1
2016-Jul-23 17:34N 49°18' W 123°29'9 9.5
2016-Jul-23 16:34N 49°23' W 123°16'1514.5
2016-Jul-23 15:33N 49°16' W 123°36'1414.0
2016-Jul-23 14:31N 49°12' W 123°57'0 0.0
2016-Jul-23 04:15N 49°12' W 123°57'3 4.3
2016-Jul-23 03:34N 49°13' W 123°54'2019.5
2016-Jul-23 02:34N 49°19' W 123°25'7 6.7
2016-Jul-23 01:34N 49°23' W 123°16'1716.9
2016-Jul-23 00:33N 49°16' W 123°40'1210.6
2016-Jul-22 23:26N 49°12' W 123°57'1315.3
2016-Jul-22 22:34N 49°17' W 123°39'1613.2
2016-Jul-22 21:22N 49°23' W 123°16'6 6.8
2016-Jul-22 20:34N 49°19' W 123°23'2120.6
2016-Jul-22 19:33N 49°14' W 123°53'2 2.4
2016-Jul-22 18:33N 49°12' W 123°56'2019.5
2016-Jul-22 17:33N 49°18' W 123°28'9 8.5
2016-Jul-22 16:33N 49°23' W 123°16'1514.8
2016-Jul-22 15:34N 49°16' W 123°37'1414.2
2016-Jul-22 14:33N 49°12' W 123°57'3 0.2
2016-Jul-22 03:33N 49°13' W 123°54'1919.4
2016-Jul-22 02:33N 49°19' W 123°26'7 6.9
2016-Jul-22 01:31N 49°23' W 123°16'1717.3
2016-Jul-22 00:34N 49°16' W 123°40'12 9.3
2016-Jul-21 23:14N 49°12' W 123°57'1217.2
2016-Jul-21 22:33N 49°16' W 123°41'1717.2
2016-Jul-21 21:33N 49°23' W 123°16'4 4.4
2016-Jul-21 20:34N 49°19' W 123°21'2120.7
2016-Jul-21 19:33N 49°14' W 123°51'3 2.6
2016-Jul-21 18:32N 49°13' W 123°55'1919.3
2016-Jul-21 17:33N 49°18' W 123°27'8 7.8
2016-Jul-21 16:30N 49°23' W 123°16'1515.1
2016-Jul-21 15:30N 49°16' W 123°37'1413.9
2016-Jul-21 14:30N 49°12' W 123°57'0 0.0
2016-Jul-21 12:26N 49°12' W 123°57'0 0.0
2016-Jul-21 04:05N 49°12' W 123°57'0 0.8
2016-Jul-21 03:33N 49°12' W 123°57'1919.1
2016-Jul-21 02:34N 49°19' W 123°30'10 9.9
2016-Jul-21 01:34N 49°23' W 123°16'1514.7
2016-Jul-21 00:33N 49°16' W 123°37'1414.2
2016-Jul-20 23:33N 49°12' W 123°57'1212.2
2016-Jul-20 22:33N 49°17' W 123°40'1715.9
2016-Jul-20 21:30N 49°23' W 123°16'4 3.9
2016-Jul-20 20:33N 49°20' W 123°21'2020.1
2016-Jul-20 19:33N 49°14' W 123°50'5 5.1
2016-Jul-20 18:31N 49°12' W 123°57'0 0.0
2016-Jul-20 17:10N 49°12' W 123°57'0 0.0
2016-Jul-20 15:31N 49°12' W 123°57'0 0.0
2016-Jul-20 13:28N 49°12' W 123°57'0 0.0
2016-Jul-20 03:33N 49°12' W 123°57'1818.7
2016-Jul-20 02:33N 49°18' W 123°31'1110.5
2016-Jul-20 01:34N 49°23' W 123°16'1212.3
2016-Jul-20 00:34N 49°17' W 123°33'1714.9
2016-Jul-19 23:27N 49°12' W 123°57'1011.2
2016-Jul-19 22:33N 49°16' W 123°44'1919.1
2016-Jul-19 21:33N 49°23' W 123°16'4 3.7
2016-Jul-19 20:33N 49°20' W 123°20'2020.0
2016-Jul-19 19:33N 49°14' W 123°49'6 5.1
2016-Jul-19 18:25N 49°12' W 123°57'0 0.0
2016-Jul-19 17:19N 49°12' W 123°57'0 0.0
2016-Jul-19 15:28N 49°12' W 123°57'0 0.0
2016-Jul-19 14:31N 49°12' W 123°57'0 0.0
2016-Jul-19 08:19N 49°12' W 123°57'0 0.0
2016-Jul-19 04:25N 49°12' W 123°57'6 6.6
2016-Jul-19 03:33N 49°15' W 123°50'2019.8
2016-Jul-19 02:33N 49°20' W 123°21'4 3.9
2016-Jul-19 01:34N 49°23' W 123°17'2019.6
2016-Jul-19 00:33N 49°15' W 123°45'9 7.9
2016-Jul-18 23:27N 49°12' W 123°57'1617.9
2016-Jul-18 22:33N 49°17' W 123°35'13 9.8
2016-Jul-18 21:14N 49°23' W 123°16'5 7.2
2016-Jul-18 20:34N 49°19' W 123°22'2120.6
2016-Jul-18 19:33N 49°14' W 123°52'3 2.8
2016-Jul-18 18:33N 49°12' W 123°56'2019.6
2016-Jul-18 17:33N 49°18' W 123°27'8 7.6
2016-Jul-18 16:27N 49°23' W 123°16'1517.2
2016-Jul-18 15:33N 49°16' W 123°38'14 1.9
2016-Jul-18 08:14N 49°12' W 123°57'710.1
2016-Jul-18 07:33N 49°15' W 123°48'2019.9
2016-Jul-18 06:33N 49°21' W 123°19'4 4.1
2016-Jul-18 05:33N 49°18' W 123°23'2120.6
2016-Jul-18 04:33N 49°13' W 123°54'1 0.6
2016-Jul-18 03:33N 49°14' W 123°53'  

Dump ship's entire track history